Huvudsida
METAR-TAF:

METAR-TAF

Flygplatser :

Shahid Ashrafi Esfahani Airport

Kermanshah, Iran

latitud: 34-16N, longitud: 047-07E, höjd: 1320 m

Aktuellt väderrapport

Denna rapport gjordes för 39 minuter sedan, klockan 08:00 UTC
Vind 10 kt från ost/sydost
Temperatur 13°C
Fuktighet 38%
Tryck 1021 hPa
Sikt 10 km eller mer
Få moln på en höjd av 4000 ft
Spridda moln på en höjd av 4500 ft
Brutna moln på en höjd av 13000 ft

METAR: OICC 220800Z 11010KT 9999 FEW040 SCT045 BKN130 13/M01 Q1020 A3014 NOSIG

Tid: 12:09 (08:39 UTC)


TAF: saknas

Aktuella väderrapporter och prognoser från 4000 flygplatser (METAR- och TAF-rapporter).

De tillgängliga stationerna syns som gula och röda prickar på kartan.

För musen över prickarna för att se namnen på stationerna.

Klicka sedan för att få väderrapporter och prognoser.

För att ändra kartan: Klicka på de gröna knapparna med ett svart kors på för att zooma in; den gröna knappen med ett streck på för att zooma ut; eller på de gröna pilarna för angränsande kartor.


METAR-TAF: